WZZ1432 EPKK-EYVI
Flight info
| Callsign | WZZ1432 |
|---|---|
| Flight time | N/A |
| Altitude | 35000 |
| Route | POBOK M985 KOTEK DCT EVODO DCT OFEDE DCT LIZUP DCT DIMTA |
| Aircraft | A20N/M-SDE2E3FGHIRWXY/LB1 |
Departure
| Time | 2026-05-05 12:14 |
|---|---|
| Airport | Kraków John Paul II International Airport (EPKK) |
Arrival
| Time | N/A |
|---|---|
| Airport | Vilnius International Airport (EYVI) |
| Time | Latitude | Longitude | Altitude | Speed | Heading |
|---|---|---|---|---|---|
| 2026-05-05 11:51 | 50.07592 | 19.79465 | 793 ft | 0 kts | 228° |
| 2026-05-05 12:02 | 50.07599 | 19.79477 | 793 ft | 3 kts | 219° |
| 2026-05-05 12:02 | 50.07614 | 19.79494 | 793 ft | 3 kts | 212° |
| 2026-05-05 12:03 | 50.07630 | 19.79509 | 793 ft | 3 kts | 212° |
| 2026-05-05 12:03 | 50.07647 | 19.79525 | 793 ft | 3 kts | 197° |
| 2026-05-05 12:03 | 50.07666 | 19.79526 | 793 ft | 3 kts | 155° |
| 2026-05-05 12:03 | 50.07670 | 19.79523 | 793 ft | 0 kts | 144° |
| 2026-05-05 12:07 | 50.07667 | 19.79526 | 793 ft | 1 kts | 145° |
| 2026-05-05 12:07 | 50.07662 | 19.79531 | 793 ft | 1 kts | 145° |
| 2026-05-05 12:07 | 50.07658 | 19.79536 | 793 ft | 0 kts | 146° |
| 2026-05-05 12:09 | 50.07652 | 19.79556 | 793 ft | 15 kts | 107° |
| 2026-05-05 12:09 | 50.07696 | 19.79781 | 792 ft | 23 kts | 77° |
| 2026-05-05 12:09 | 50.07731 | 19.80022 | 791 ft | 23 kts | 78° |
| 2026-05-05 12:09 | 50.07766 | 19.80262 | 790 ft | 23 kts | 77° |
| 2026-05-05 12:10 | 50.07830 | 19.80335 | 790 ft | 8 kts | 350° |
| 2026-05-05 12:10 | 50.07841 | 19.80332 | 790 ft | 0 kts | 349° |
| 2026-05-05 12:11 | 50.07842 | 19.80332 | 790 ft | 3 kts | 349° |
| 2026-05-05 12:11 | 50.07892 | 19.80316 | 790 ft | 8 kts | 348° |
| 2026-05-05 12:12 | 50.07947 | 19.80298 | 790 ft | 8 kts | 348° |
| 2026-05-05 12:12 | 50.08000 | 19.80263 | 789 ft | 7 kts | 318° |
| 2026-05-05 12:12 | 50.08007 | 19.80211 | 790 ft | 5 kts | 269° |
| 2026-05-05 12:12 | 50.08000 | 19.80145 | 791 ft | 6 kts | 259° |
| 2026-05-05 12:13 | 50.07992 | 19.80084 | 791 ft | 5 kts | 258° |
| 2026-05-05 12:13 | 50.07991 | 19.80078 | 791 ft | 0 kts | 258° |
| 2026-05-05 12:13 | 50.07975 | 19.79964 | 791 ft | 25 kts | 257° |
| 2026-05-05 12:13 | 50.07895 | 19.79381 | 793 ft | 89 kts | 258° |
| 2026-05-05 12:14 | 50.07716 | 19.78080 | 854 ft | 149 kts | 257° |
| 2026-05-05 12:14 | 50.07481 | 19.76395 | 1295 ft | 167 kts | 256° |
| 2026-05-05 12:14 | 50.07227 | 19.74557 | 1854 ft | 179 kts | 254° |
| 2026-05-05 12:14 | 50.06953 | 19.72553 | 2389 ft | 204 kts | 253° |
| 2026-05-05 12:15 | 50.06624 | 19.70219 | 2836 ft | 237 kts | 253° |
| 2026-05-05 12:15 | 50.06256 | 19.67560 | 3403 ft | 262 kts | 254° |
| 2026-05-05 12:15 | 50.06041 | 19.64685 | 4307 ft | 275 kts | 272° |
| 2026-05-05 12:15 | 50.06732 | 19.61908 | 5143 ft | 290 kts | 302° |
| 2026-05-05 12:16 | 50.08345 | 19.59905 | 5655 ft | 304 kts | 334° |
| 2026-05-05 12:16 | 50.10440 | 19.59337 | 5838 ft | 311 kts | 1° |
| 2026-05-05 12:16 | 50.12604 | 19.59711 | 5850 ft | 315 kts | 12° |
| 2026-05-05 12:16 | 50.14557 | 19.61115 | 5860 ft | 315 kts | 36° |
| 2026-05-05 12:17 | 50.16195 | 19.63377 | 6117 ft | 316 kts | 46° |
| 2026-05-05 12:17 | 50.17743 | 19.65850 | 6884 ft | 321 kts | 47° |
| 2026-05-05 12:17 | 50.19327 | 19.68304 | 7959 ft | 322 kts | 45° |
| 2026-05-05 12:17 | 50.20968 | 19.70715 | 9032 ft | 326 kts | 43° |
| 2026-05-05 12:18 | 50.22660 | 19.73116 | 10027 ft | 332 kts | 42° |
| 2026-05-05 12:18 | 50.24404 | 19.75539 | 10963 ft | 337 kts | 41° |
| 2026-05-05 12:18 | 50.26173 | 19.77972 | 11869 ft | 341 kts | 41° |
| 2026-05-05 12:18 | 50.27971 | 19.80430 | 12770 ft | 346 kts | 41° |
| 2026-05-05 12:19 | 50.29801 | 19.82929 | 13660 ft | 351 kts | 41° |
| 2026-05-05 12:19 | 50.31654 | 19.85463 | 14483 ft | 356 kts | 41° |
| 2026-05-05 12:19 | 50.33529 | 19.88026 | 15280 ft | 360 kts | 41° |
| 2026-05-05 12:19 | 50.35426 | 19.90624 | 16117 ft | 364 kts | 41° |
| 2026-05-05 12:20 | 50.37346 | 19.93255 | 16932 ft | 368 kts | 41° |
| 2026-05-05 12:20 | 50.39283 | 19.95913 | 17737 ft | 372 kts | 41° |
| 2026-05-05 12:20 | 50.41240 | 19.98601 | 18460 ft | 377 kts | 41° |
| 2026-05-05 12:20 | 50.43220 | 20.01324 | 19162 ft | 379 kts | 41° |
| 2026-05-05 12:21 | 50.45207 | 20.04060 | 19648 ft | 381 kts | 41° |
| 2026-05-05 12:21 | 50.47195 | 20.06801 | 19841 ft | 381 kts | 41° |
| 2026-05-05 12:21 | 50.49191 | 20.09554 | 19866 ft | 382 kts | 41° |
| 2026-05-05 12:21 | 50.51188 | 20.12314 | 19866 ft | 382 kts | 41° |
| 2026-05-05 12:22 | 50.53181 | 20.15072 | 19864 ft | 383 kts | 41° |
| 2026-05-05 12:22 | 50.55179 | 20.17840 | 19861 ft | 383 kts | 41° |
| 2026-05-05 12:22 | 50.57232 | 20.20502 | 19862 ft | 382 kts | 34° |
| 2026-05-05 12:22 | 50.59546 | 20.22532 | 19867 ft | 381 kts | 21° |
| 2026-05-05 12:23 | 50.62020 | 20.24007 | 19866 ft | 380 kts | 17° |
| 2026-05-05 12:23 | 50.64495 | 20.25487 | 19866 ft | 381 kts | 22° |
| 2026-05-05 12:23 | 50.66896 | 20.27254 | 19865 ft | 382 kts | 25° |
| 2026-05-05 12:23 | 50.69261 | 20.29174 | 19866 ft | 382 kts | 27° |
| 2026-05-05 12:24 | 50.71557 | 20.31174 | 19867 ft | 382 kts | 28° |
| 2026-05-05 12:24 | 50.73860 | 20.33275 | 19864 ft | 382 kts | 29° |
| 2026-05-05 12:24 | 50.76148 | 20.35420 | 19868 ft | 383 kts | 30° |
| 2026-05-05 12:24 | 50.78427 | 20.37587 | 19865 ft | 382 kts | 30° |
| 2026-05-05 12:25 | 50.80702 | 20.39764 | 19866 ft | 382 kts | 30° |
| 2026-05-05 12:25 | 50.82978 | 20.41946 | 19869 ft | 382 kts | 30° |
| 2026-05-05 12:25 | 50.85253 | 20.44130 | 19865 ft | 382 kts | 30° |
| 2026-05-05 12:25 | 50.87527 | 20.46310 | 19871 ft | 383 kts | 30° |
| 2026-05-05 12:26 | 50.89810 | 20.48496 | 19866 ft | 382 kts | 30° |
| 2026-05-05 12:26 | 50.92086 | 20.50674 | 19865 ft | 382 kts | 30° |
| 2026-05-05 12:26 | 50.94358 | 20.52849 | 19865 ft | 382 kts | 30° |
| 2026-05-05 12:26 | 50.96631 | 20.55025 | 19870 ft | 382 kts | 30° |
| 2026-05-05 12:27 | 50.98905 | 20.57205 | 19868 ft | 382 kts | 30° |
| 2026-05-05 12:27 | 51.01180 | 20.59389 | 19866 ft | 382 kts | 30° |
| 2026-05-05 12:27 | 51.03449 | 20.61570 | 19869 ft | 382 kts | 30° |
| 2026-05-05 12:27 | 51.05720 | 20.63757 | 19872 ft | 381 kts | 30° |
| 2026-05-05 12:28 | 51.07985 | 20.65940 | 19863 ft | 381 kts | 30° |
| 2026-05-05 12:28 | 51.10254 | 20.68129 | 19866 ft | 381 kts | 30° |
| 2026-05-05 12:28 | 51.12519 | 20.70316 | 19864 ft | 381 kts | 30° |
| 2026-05-05 12:28 | 51.14787 | 20.72507 | 19865 ft | 381 kts | 30° |
| 2026-05-05 12:29 | 51.17051 | 20.74698 | 19864 ft | 381 kts | 30° |
| 2026-05-05 12:29 | 51.19312 | 20.76889 | 19865 ft | 381 kts | 30° |
| 2026-05-05 12:29 | 51.21581 | 20.79089 | 19866 ft | 381 kts | 30° |
| 2026-05-05 12:29 | 51.23839 | 20.81281 | 19862 ft | 380 kts | 30° |
| 2026-05-05 12:30 | 51.26100 | 20.83479 | 19859 ft | 380 kts | 30° |
| 2026-05-05 12:30 | 51.28362 | 20.85680 | 19859 ft | 380 kts | 30° |
| 2026-05-05 12:30 | 51.30619 | 20.87878 | 19859 ft | 380 kts | 30° |
| 2026-05-05 12:30 | 51.32877 | 20.90083 | 19861 ft | 380 kts | 30° |
| 2026-05-05 12:31 | 51.35134 | 20.92290 | 19857 ft | 380 kts | 30° |
| 2026-05-05 12:31 | 51.37393 | 20.94500 | 19857 ft | 380 kts | 30° |
| 2026-05-05 12:31 | 51.39648 | 20.96709 | 19858 ft | 380 kts | 30° |
| 2026-05-05 12:31 | 51.41901 | 20.98919 | 19858 ft | 380 kts | 30° |
| 2026-05-05 12:32 | 51.44158 | 21.01132 | 19857 ft | 380 kts | 30° |
| 2026-05-05 12:32 | 51.46414 | 21.03349 | 19857 ft | 380 kts | 30° |
| 2026-05-05 12:32 | 51.48666 | 21.05565 | 19859 ft | 380 kts | 30° |
| 2026-05-05 12:32 | 51.50921 | 21.07787 | 19852 ft | 380 kts | 30° |
| 2026-05-05 12:33 | 51.53173 | 21.10007 | 19852 ft | 380 kts | 30° |
| 2026-05-05 12:33 | 51.55388 | 21.12193 | 19847 ft | 381 kts | 30° |
| 2026-05-05 12:33 | 51.57645 | 21.14423 | 19854 ft | 380 kts | 30° |
| 2026-05-05 12:33 | 51.59896 | 21.16649 | 19849 ft | 380 kts | 30° |
| 2026-05-05 12:34 | 51.62149 | 21.18880 | 19851 ft | 380 kts | 30° |
| 2026-05-05 12:34 | 51.64400 | 21.21115 | 19852 ft | 380 kts | 30° |
| 2026-05-05 12:34 | 51.66608 | 21.23309 | 19841 ft | 380 kts | 30° |
| 2026-05-05 12:34 | 51.68854 | 21.25544 | 19843 ft | 380 kts | 30° |
| 2026-05-05 12:35 | 51.71105 | 21.27787 | 19843 ft | 380 kts | 30° |
| 2026-05-05 12:35 | 51.73354 | 21.30029 | 19843 ft | 380 kts | 30° |
| 2026-05-05 12:35 | 51.75601 | 21.32271 | 19839 ft | 379 kts | 30° |
| 2026-05-05 12:35 | 51.77817 | 21.34484 | 19839 ft | 379 kts | 30° |
| 2026-05-05 12:36 | 51.80060 | 21.36729 | 19845 ft | 379 kts | 30° |
| 2026-05-05 12:36 | 51.82303 | 21.38977 | 19843 ft | 379 kts | 30° |
| 2026-05-05 12:36 | 51.84548 | 21.41228 | 19841 ft | 379 kts | 30° |
| 2026-05-05 12:36 | 51.86786 | 21.43475 | 19844 ft | 379 kts | 30° |
| 2026-05-05 12:37 | 51.89028 | 21.45728 | 19843 ft | 379 kts | 30° |
| 2026-05-05 12:37 | 51.91273 | 21.47987 | 19842 ft | 379 kts | 30° |
| 2026-05-05 12:37 | 51.93512 | 21.50244 | 19841 ft | 379 kts | 30° |
| 2026-05-05 12:37 | 51.95751 | 21.52502 | 19842 ft | 379 kts | 30° |
| 2026-05-05 12:38 | 51.97989 | 21.54761 | 19842 ft | 379 kts | 30° |
| 2026-05-05 12:38 | 52.00230 | 21.57025 | 19845 ft | 379 kts | 30° |
| 2026-05-05 12:38 | 52.02470 | 21.59291 | 19850 ft | 379 kts | 30° |
| 2026-05-05 12:38 | 52.04710 | 21.61559 | 19849 ft | 379 kts | 30° |
| 2026-05-05 12:39 | 52.06950 | 21.63831 | 19849 ft | 379 kts | 30° |
| 2026-05-05 12:39 | 52.09184 | 21.66100 | 19849 ft | 379 kts | 30° |
| 2026-05-05 12:39 | 52.11421 | 21.68374 | 19850 ft | 379 kts | 30° |
| 2026-05-05 12:39 | 52.13659 | 21.70652 | 19849 ft | 379 kts | 30° |
| 2026-05-05 12:40 | 52.15893 | 21.72930 | 19852 ft | 379 kts | 30° |
| 2026-05-05 12:40 | 52.18120 | 21.75203 | 19852 ft | 379 kts | 30° |
| 2026-05-05 12:40 | 52.20357 | 21.77490 | 19851 ft | 379 kts | 30° |
| 2026-05-05 12:40 | 52.22591 | 21.79777 | 19851 ft | 379 kts | 31° |
| 2026-05-05 12:41 | 52.24824 | 21.82063 | 19851 ft | 379 kts | 31° |
| 2026-05-05 12:41 | 52.27054 | 21.84349 | 19853 ft | 379 kts | 31° |
| 2026-05-05 12:41 | 52.29283 | 21.86640 | 19856 ft | 379 kts | 31° |
| 2026-05-05 12:41 | 52.31518 | 21.88938 | 19855 ft | 379 kts | 31° |
| 2026-05-05 12:42 | 52.33745 | 21.91232 | 19854 ft | 379 kts | 31° |
| 2026-05-05 12:42 | 52.35941 | 21.93497 | 19854 ft | 378 kts | 31° |
| 2026-05-05 12:42 | 52.38167 | 21.95794 | 19852 ft | 378 kts | 31° |
| 2026-05-05 12:42 | 52.40394 | 21.98097 | 19855 ft | 378 kts | 31° |
| 2026-05-05 12:43 | 52.42621 | 22.00401 | 19857 ft | 379 kts | 30° |
| 2026-05-05 12:43 | 52.44848 | 22.02708 | 19853 ft | 378 kts | 30° |
| 2026-05-05 12:43 | 52.47074 | 22.05015 | 19856 ft | 378 kts | 30° |
| 2026-05-05 12:43 | 52.49302 | 22.07326 | 19854 ft | 378 kts | 30° |
| 2026-05-05 12:44 | 52.51523 | 22.09634 | 19855 ft | 379 kts | 30° |
| 2026-05-05 12:44 | 52.53750 | 22.11951 | 19854 ft | 378 kts | 30° |
| 2026-05-05 12:44 | 52.55973 | 22.14268 | 19856 ft | 378 kts | 31° |
| 2026-05-05 12:44 | 52.58196 | 22.16589 | 19855 ft | 378 kts | 30° |
| 2026-05-05 12:45 | 52.60416 | 22.18907 | 19854 ft | 378 kts | 30° |
| 2026-05-05 12:45 | 52.62641 | 22.21232 | 19853 ft | 379 kts | 30° |
| 2026-05-05 12:45 | 52.64859 | 22.23554 | 19855 ft | 379 kts | 30° |
| 2026-05-05 12:45 | 52.67091 | 22.25896 | 19854 ft | 379 kts | 30° |
| 2026-05-05 12:46 | 52.69314 | 22.28230 | 19854 ft | 379 kts | 30° |
| 2026-05-05 12:46 | 52.71537 | 22.30568 | 19855 ft | 379 kts | 30° |
| 2026-05-05 12:46 | 52.73761 | 22.32908 | 19851 ft | 379 kts | 30° |
| 2026-05-05 12:46 | 52.75984 | 22.35251 | 19854 ft | 379 kts | 30° |
| 2026-05-05 12:47 | 52.78206 | 22.37596 | 19852 ft | 379 kts | 30° |
| 2026-05-05 12:47 | 52.80431 | 22.39946 | 19857 ft | 379 kts | 30° |
| 2026-05-05 12:47 | 52.82655 | 22.42300 | 19852 ft | 379 kts | 31° |
| 2026-05-05 12:47 | 52.84872 | 22.44648 | 19859 ft | 379 kts | 30° |
| 2026-05-05 12:48 | 52.87098 | 22.47008 | 19863 ft | 379 kts | 31° |
| 2026-05-05 12:48 | 52.89313 | 22.49359 | 19864 ft | 380 kts | 30° |
| 2026-05-05 12:48 | 52.91516 | 22.51700 | 19859 ft | 380 kts | 30° |
| 2026-05-05 12:48 | 52.93742 | 22.54068 | 19859 ft | 380 kts | 30° |
| 2026-05-05 12:49 | 52.95969 | 22.56441 | 19859 ft | 380 kts | 30° |
| 2026-05-05 12:49 | 52.98191 | 22.58811 | 19862 ft | 380 kts | 30° |
| 2026-05-05 12:49 | 53.00414 | 22.61185 | 19860 ft | 380 kts | 30° |
| 2026-05-05 12:49 | 53.02642 | 22.63568 | 19861 ft | 380 kts | 31° |
| 2026-05-05 12:50 | 53.04869 | 22.65951 | 19862 ft | 381 kts | 30° |
| 2026-05-05 12:50 | 53.07096 | 22.68338 | 19864 ft | 381 kts | 31° |
| 2026-05-05 12:50 | 53.09321 | 22.70724 | 19859 ft | 381 kts | 30° |
| 2026-05-05 12:50 | 53.11548 | 22.73115 | 19837 ft | 380 kts | 30° |
| 2026-05-05 12:51 | 53.13767 | 22.75503 | 19669 ft | 380 kts | 30° |
| 2026-05-05 12:51 | 53.15991 | 22.77898 | 19546 ft | 380 kts | 31° |
| 2026-05-05 12:51 | 53.18209 | 22.80289 | 19331 ft | 379 kts | 31° |
| 2026-05-05 12:51 | 53.20414 | 22.82670 | 18831 ft | 377 kts | 31° |
| 2026-05-05 12:52 | 53.22606 | 22.85039 | 18382 ft | 374 kts | 31° |
| 2026-05-05 12:52 | 53.24788 | 22.87401 | 17885 ft | 372 kts | 31° |
| 2026-05-05 12:52 | 53.26953 | 22.89748 | 17355 ft | 370 kts | 30° |
| 2026-05-05 12:52 | 53.29168 | 22.91904 | 16829 ft | 367 kts | 24° |
| 2026-05-05 12:53 | 53.31470 | 22.93684 | 16310 ft | 363 kts | 20° |
| 2026-05-05 12:53 | 53.33802 | 22.95275 | 15813 ft | 361 kts | 18° |
| 2026-05-05 12:53 | 53.36149 | 22.96728 | 15310 ft | 358 kts | 16° |
| 2026-05-05 12:53 | 53.38500 | 22.98082 | 14815 ft | 356 kts | 15° |
| 2026-05-05 12:54 | 53.43187 | 23.00629 | 13877 ft | 352 kts | 14° |
| 2026-05-05 12:54 | 53.45514 | 23.01863 | 13369 ft | 350 kts | 14° |
| 2026-05-05 12:54 | 53.47833 | 23.03088 | 12859 ft | 348 kts | 14° |
| 2026-05-05 12:55 | 53.50097 | 23.04285 | 12385 ft | 345 kts | 14° |
| 2026-05-05 12:55 | 53.52375 | 23.05493 | 11947 ft | 341 kts | 14° |
| 2026-05-05 12:55 | 53.54624 | 23.06689 | 11481 ft | 338 kts | 14° |
| 2026-05-05 12:55 | 53.56857 | 23.07877 | 11017 ft | 335 kts | 14° |
| 2026-05-05 12:56 | 53.59074 | 23.09059 | 10569 ft | 332 kts | 14° |
| 2026-05-05 12:56 | 53.61271 | 23.10233 | 10138 ft | 329 kts | 14° |
| 2026-05-05 12:56 | 53.63446 | 23.11394 | 9908 ft | 327 kts | 14° |
| 2026-05-05 12:56 | 53.65622 | 23.12557 | 9872 ft | 328 kts | 14° |
| 2026-05-05 12:57 | 53.67795 | 23.13720 | 9873 ft | 328 kts | 14° |
| 2026-05-05 12:57 | 53.69972 | 23.14888 | 9879 ft | 328 kts | 14° |
| 2026-05-05 12:57 | 53.71410 | 23.15662 | 9878 ft | 328 kts | 14° |
| 2026-05-05 12:57 | 53.73581 | 23.16834 | 9826 ft | 327 kts | 14° |
| 2026-05-05 12:58 | 53.75743 | 23.18002 | 9352 ft | 325 kts | 15° |